Date,TemperatureHighF,TemperatureAvgF,TemperatureLowF,DewpointHighF,DewpointAvgF,DewpointLowF,HumidityHigh,HumidityAvg,HumidityLow,PressureMaxIn,PressureMinIn,WindSpeedMaxMPH,WindSpeedAvgMPH,GustSpeedMaxMPH,PrecipitationSumIn
2013-4-1,69.9,39.2,20.5,23.7,11.0,-99.9,78,39,15,29.06,28.88,12,4,23,0.00
2013-4-2,71.4,43.3,19.6,25.7,9.4,-99.9,67,31,14,29.03,28.82,18,6,28,0.00
2013-4-3,73.8,49.5,32.0,23.9,12.7,-99.9,54,26,14,29.00,28.82,16,8,22,0.00
2013-4-4,84.0,50.7,27.0,29.4,17.9,-99.9,80,36,13,29.03,28.76,24,7,34,0.09
2013-4-5,85.0,50.7,37.4,39.3,19.3,-99.9,82,37,13,28.82,28.53,24,8,34,0.04
2013-4-6,73.1,48.8,35.4,35.9,18.4,-99.9,80,37,16,28.82,28.70,13,5,17,0.00
2013-4-7,74.1,49.3,29.1,39.6,23.3,-99.9,83,46,15,28.76,28.53,15,-28,23,0.00
2013-4-8,38.4,24.3,12.7,37.8,18.6,-99.9,100,80,63,29.06,28.56,23,12,27,0.00
2013-4-9,23.7,13.8,8.6,9.1,1.8,-99.9,81,62,38,29.15,29.03,19,11,24,0.00
2013-4-10,57.5,24.4,10.0,16.9,3.9,-99.9,76,46,17,29.09,28.76,8,4,11,0.04
2013-4-11,16.5,13.5,10.3,9.3,2.6,-99.9,77,64,60,28.79,28.67,8,4,11,0.00
2013-4-12,30.2,27.5,26.5,22.3,18.3,-99.9,80,70,63,28.79,28.76,10,5,13,0.00
2013-4-13,61.2,40.4,26.2,31.9,22.6,-99.9,97,57,21,28.76,28.26,39,-40,46,0.00
2013-4-14,46.0,28.8,17.1,31.2,16.5,-99.9,93,64,30,28.79,28.41,26,-260,35,0.00
2013-4-15,31.8,21.6,13.7,11.1,5.2,-99.9,80,51,34,28.97,28.73,13,7,18,0.00
2013-4-16,31.8,21.7,15.2,16.8,11.3,-99.9,82,67,43,29.09,28.91,13,-15,16,0.00
2013-4-17,33.3,24.2,18.0,16.1,12.5,-99.9,83,62,38,29.06,29.00,15,4,19,0.00
2013-4-18,51.7,28.7,8.6,20.8,7.0,-99.9,80,47,21,29.03,28.88,16,6,22,0.00
2013-4-19,58.0,40.6,27.3,31.0,16.8,-99.9,84,45,22,28.88,28.67,15,-1,20,0.00
2013-4-20,68.4,44.8,30.0,33.4,23.8,-99.9,88,53,18,28.76,28.64,14,3,20,0.00
2013-4-21,60.2,36.4,26.9,39.5,28.1,-99.9,99,75,30,28.91,28.76,17,7,24,0.00
2013-4-22,40.8,25.5,8.3,26.5,10.0,-99.9,99,58,23,29.21,28.88,17,-12,23,0.00
2013-4-23,59.9,27.8,1.2,26.2,2.8,-99.9,77,38,17,29.21,28.94,11,-34,15,0.00
2013-4-24,26.6,24.6,24.1,15.9,10.0,-99.9,62,54,49,29.00,28.97,9,-21,10,0.00
2013-4-30,32.2,30.4,27.9,16.3,14.9,13.2,52,49,45,28.97,28.88,14,10,17,0.00